createdAt,value
2018-01-18T00:01:07.422Z,15.87
2018-01-18T00:03:37.288Z,8.90
2018-01-18T00:06:07.173Z,5.50
2018-01-18T00:08:37.109Z,11.83
2018-01-18T00:11:06.993Z,13.30
2018-01-18T00:13:36.864Z,13.10
2018-01-18T00:16:06.877Z,14.50
2018-01-18T00:18:36.812Z,11.57
2018-01-18T00:21:06.691Z,12.27
2018-01-18T00:23:36.562Z,17.60
2018-01-18T00:26:06.408Z,9.67
2018-01-18T00:28:36.293Z,20.30
2018-01-18T00:31:06.155Z,14.03
2018-01-18T00:33:36.026Z,12.80
2018-01-18T00:36:05.901Z,22.13
2018-01-18T00:38:35.811Z,19.50
2018-01-18T00:41:05.712Z,20.23
2018-01-18T00:43:35.582Z,13.20
2018-01-18T00:46:05.561Z,16.67
2018-01-18T00:48:35.486Z,12.80
2018-01-18T00:51:05.473Z,12.40
2018-01-18T00:53:35.317Z,23.33
2018-01-18T00:56:05.249Z,16.27
2018-01-18T00:58:35.163Z,19.23
2018-01-18T01:01:05.074Z,10.43
2018-01-18T01:03:34.941Z,23.90
2018-01-18T01:06:04.824Z,17.10
2018-01-18T01:08:34.696Z,16.27
2018-01-18T01:11:04.578Z,22.40
2018-01-18T01:13:34.566Z,17.23
2018-01-18T01:16:04.463Z,11.33
2018-01-18T01:18:34.341Z,14.30
2018-01-18T01:21:04.432Z,14.63
2018-01-18T01:23:34.429Z,11.90
2018-01-18T01:26:04.316Z,10.90
2018-01-18T01:28:34.201Z,11.70
2018-01-18T01:31:04.083Z,12.10
2018-01-18T01:33:34.028Z,13.53
2018-01-18T01:36:03.900Z,16.63
2018-01-18T01:38:33.776Z,13.47
2018-01-18T01:41:03.665Z,15.00
2018-01-18T01:43:33.635Z,16.33
2018-01-18T01:46:03.508Z,19.50
2018-01-18T01:48:39.293Z,18.50
2018-01-18T01:51:09.317Z,21.40
2018-01-18T01:53:39.185Z,24.30
2018-01-18T01:56:09.057Z,16.40
2018-01-18T01:58:39.044Z,26.60
2018-01-18T02:01:08.931Z,18.10
2018-01-18T02:03:38.790Z,17.07
2018-01-18T02:06:08.813Z,26.97
2018-01-18T02:08:38.723Z,27.70
2018-01-18T02:11:08.614Z,27.53
2018-01-18T02:13:38.507Z,24.33
2018-01-18T02:16:08.938Z,20.60
2018-01-18T02:18:38.885Z,30.73
2018-01-18T02:21:08.873Z,26.97
2018-01-18T02:23:38.845Z,23.87
2018-01-18T02:26:08.890Z,17.93
2018-01-18T02:28:38.850Z,23.53
2018-01-18T02:31:08.733Z,10.57
2018-01-18T02:33:38.592Z,13.83
2018-01-18T02:36:08.567Z,23.47
2018-01-18T02:38:38.510Z,22.00
2018-01-18T02:41:08.392Z,18.70
2018-01-18T02:43:38.340Z,23.90
2018-01-18T02:46:08.315Z,36.70
2018-01-18T02:48:38.188Z,20.90
2018-01-18T02:51:08.032Z,25.17
2018-01-18T02:53:37.916Z,17.00
2018-01-18T02:56:07.789Z,19.63
2018-01-18T02:58:37.674Z,22.00
2018-01-18T03:01:07.628Z,22.90
2018-01-18T03:03:37.489Z,23.60
2018-01-18T03:06:07.411Z,21.77
2018-01-18T03:08:37.479Z,15.27
2018-01-18T03:11:07.356Z,20.10
2018-01-18T03:13:37.218Z,17.40
2018-01-18T03:16:07.186Z,23.57
2018-01-18T03:18:37.088Z,20.23
2018-01-18T03:21:06.955Z,34.07
2018-01-18T03:23:36.933Z,18.17
2018-01-18T03:26:06.779Z,18.07
2018-01-18T03:28:36.657Z,24.50
2018-01-18T03:31:06.524Z,13.53
2018-01-18T03:33:36.419Z,19.37
2018-01-18T03:36:06.295Z,19.50
2018-01-18T03:38:36.219Z,20.53
2018-01-18T03:41:06.110Z,19.07
2018-01-18T03:43:36.009Z,15.00
2018-01-18T03:46:05.856Z,33.77
2018-01-18T03:48:35.812Z,12.97
2018-01-18T03:51:05.933Z,20.60
2018-01-18T03:53:35.784Z,11.27
2018-01-18T03:56:05.669Z,21.23
2018-01-18T03:58:35.543Z,16.13
2018-01-18T04:01:05.415Z,12.73
2018-01-18T04:03:35.285Z,17.50
2018-01-18T04:06:05.189Z,24.20
2018-01-18T04:08:35.052Z,21.20
2018-01-18T04:11:04.917Z,22.13
2018-01-18T04:13:34.761Z,23.27
2018-01-18T04:16:04.641Z,17.97
2018-01-18T04:18:34.510Z,20.03
2018-01-18T04:21:04.459Z,25.97
2018-01-18T04:23:34.428Z,20.33
2018-01-18T04:26:04.297Z,28.83
2018-01-18T04:28:34.177Z,22.27
2018-01-18T04:31:04.124Z,16.97
2018-01-18T04:33:34.004Z,16.87
2018-01-18T04:36:03.945Z,28.10
2018-01-18T04:38:33.868Z,17.53
2018-01-18T04:41:03.894Z,23.63
2018-01-18T04:43:33.790Z,25.90
2018-01-18T04:46:03.715Z,27.87
2018-01-18T04:48:33.567Z,20.50
2018-01-18T04:51:03.449Z,20.63
2018-01-18T04:53:33.355Z,18.77
2018-01-18T04:56:03.252Z,24.37
2018-01-18T04:58:33.118Z,25.33
2018-01-18T05:01:03.002Z,21.43
2018-01-18T05:03:32.829Z,32.30
2018-01-18T05:06:02.760Z,18.90
2018-01-18T05:08:32.675Z,19.20
2018-01-18T05:11:02.533Z,25.73
2018-01-18T05:13:32.487Z,23.33
2018-01-18T05:16:02.353Z,30.13
2018-01-18T05:18:32.225Z,16.53
2018-01-18T05:21:02.168Z,36.17
2018-01-18T05:23:32.032Z,25.47
2018-01-18T05:26:01.914Z,25.17
2018-01-18T05:28:31.821Z,18.70
2018-01-18T05:31:01.753Z,18.40
2018-01-18T05:33:31.603Z,28.47
2018-01-18T05:36:01.485Z,17.47
2018-01-18T05:38:31.355Z,113.37
2018-01-18T05:41:01.237Z,21.47
2018-01-18T05:43:31.103Z,29.30
2018-01-18T05:46:01.044Z,22.93
2018-01-18T05:48:30.935Z,44.63
2018-01-18T05:51:00.804Z,28.43
2018-01-18T05:53:30.755Z,21.20
2018-01-18T05:56:00.605Z,21.60
2018-01-18T05:58:30.512Z,26.43
2018-01-18T06:01:02.130Z,26.63
2018-01-18T06:03:32.027Z,28.57
2018-01-18T06:06:02.436Z,19.53
2018-01-18T06:08:32.767Z,23.17
2018-01-18T06:11:02.643Z,21.33
2018-01-18T06:13:32.556Z,29.73
2018-01-18T06:16:02.422Z,25.37
2018-01-18T06:18:32.307Z,32.37
2018-01-18T06:21:02.175Z,42.73
2018-01-18T06:23:32.207Z,32.60
2018-01-18T06:26:02.057Z,18.93
2018-01-18T06:28:31.947Z,34.37
2018-01-18T06:31:01.856Z,18.40
2018-01-18T06:33:31.725Z,24.63
2018-01-18T06:36:01.830Z,33.77
2018-01-18T06:38:31.753Z,29.83
2018-01-18T06:41:01.686Z,35.23
2018-01-18T06:43:32.567Z,34.53
2018-01-18T06:46:07.153Z,25.50
2018-01-18T06:48:37.177Z,25.40
2018-01-18T06:51:07.056Z,33.07
2018-01-18T06:53:36.896Z,29.27
2018-01-18T06:56:06.845Z,27.23
2018-01-18T06:58:36.789Z,38.47
2018-01-18T07:01:06.637Z,22.43
2018-01-18T07:03:36.610Z,23.07
2018-01-18T07:06:06.526Z,26.60
2018-01-18T07:08:36.385Z,23.63
2018-01-18T07:11:06.273Z,28.93
2018-01-18T07:13:36.161Z,25.10
2018-01-18T07:16:06.031Z,31.97
2018-01-18T07:18:35.927Z,22.03
2018-01-18T07:21:05.840Z,23.43
2018-01-18T07:23:35.680Z,25.57
2018-01-18T07:26:05.593Z,23.77
2018-01-18T07:28:35.476Z,27.40
2018-01-18T07:31:05.347Z,24.30
2018-01-18T07:33:35.261Z,23.27
2018-01-18T07:36:05.139Z,17.63
2018-01-18T07:38:35.094Z,18.10
2018-01-18T07:41:04.985Z,23.10
2018-01-18T07:43:34.901Z,24.47
2018-01-18T07:46:04.797Z,23.40
2018-01-18T07:48:34.714Z,16.43
2018-01-18T07:51:04.583Z,18.17
2018-01-18T07:53:34.566Z,16.10
2018-01-18T07:56:04.519Z,12.87
2018-01-18T07:58:34.402Z,18.67
2018-01-18T08:01:04.301Z,23.13
2018-01-18T08:03:39.921Z,25.47
2018-01-18T08:06:10.323Z,14.23
2018-01-18T08:08:40.260Z,20.93
2018-01-18T08:11:10.186Z,16.07
2018-01-18T08:13:40.128Z,16.20
2018-01-18T08:16:10.022Z,16.07
2018-01-18T08:18:40.031Z,11.57
2018-01-18T08:21:09.914Z,14.10
2018-01-18T08:23:39.775Z,15.93
2018-01-18T08:26:09.745Z,12.50
2018-01-18T08:28:39.603Z,14.67
2018-01-18T08:31:09.495Z,11.93
2018-01-18T08:33:39.794Z,11.17
2018-01-18T08:36:09.742Z,8.87
2018-01-18T08:38:39.656Z,8.83
2018-01-18T08:41:09.577Z,11.33
2018-01-18T08:43:39.618Z,6.70
2018-01-18T08:46:11.108Z,8.53
2018-01-18T08:48:41.173Z,6.20
2018-01-18T08:51:11.412Z,11.20
2018-01-18T08:53:41.414Z,4.30
2018-01-18T08:56:11.659Z,6.47
2018-01-18T08:58:41.604Z,3.37
2018-01-18T09:01:11.509Z,3.60
2018-01-18T09:03:41.478Z,6.13
2018-01-18T09:06:11.365Z,2.73
2018-01-18T09:08:41.211Z,3.33
2018-01-18T09:11:11.173Z,4.23
2018-01-18T09:13:41.091Z,3.43
2018-01-18T09:16:10.948Z,2.13
2018-01-18T09:18:40.918Z,1.63
2018-01-18T09:21:10.806Z,4.37
2018-01-18T09:23:42.687Z,3.00
2018-01-18T09:26:13.619Z,11.20
2018-01-18T09:28:43.619Z,3.57
2018-01-18T09:31:13.594Z,2.10
2018-01-18T09:33:43.514Z,3.57
2018-01-18T09:36:13.450Z,1.03
2018-01-18T09:38:43.544Z,1.87
2018-01-18T09:41:13.572Z,1.80
2018-01-18T09:43:43.487Z,2.60
2018-01-18T09:46:13.384Z,1.30
2018-01-18T09:48:43.388Z,1.40
2018-01-18T09:51:13.308Z,2.23
2018-01-18T09:53:43.301Z,0.87
2018-01-18T09:56:13.154Z,1.13
2018-01-18T09:58:43.084Z,1.37
2018-01-18T10:01:12.980Z,1.63
2018-01-18T10:03:42.910Z,1.70
2018-01-18T10:06:12.796Z,1.47
2018-01-18T10:08:42.745Z,1.10
2018-01-18T10:11:12.824Z,1.90
2018-01-18T10:13:42.706Z,1.10
2018-01-18T10:16:12.685Z,1.13
2018-01-18T10:18:42.719Z,0.90
2018-01-18T10:21:12.647Z,1.20
2018-01-18T10:23:42.673Z,1.10
2018-01-18T10:26:12.571Z,0.63
2018-01-18T10:28:42.458Z,1.47
2018-01-18T10:31:12.392Z,0.80
2018-01-18T10:33:42.349Z,0.93
2018-01-18T10:36:12.334Z,1.67
2018-01-18T10:38:42.244Z,1.60
2018-01-18T10:41:12.167Z,0.80
2018-01-18T10:43:42.078Z,1.00
2018-01-18T10:46:12.079Z,7.10
2018-01-18T10:48:42.020Z,1.10
2018-01-18T10:51:11.880Z,1.47
2018-01-18T10:53:41.741Z,1.70
2018-01-18T10:56:11.621Z,1.83
2018-01-18T10:58:41.561Z,1.00
2018-01-18T11:01:11.426Z,0.50
2018-01-18T11:03:41.367Z,0.67
2018-01-18T11:06:11.269Z,1.27
2018-01-18T11:08:41.170Z,0.60
2018-01-18T11:11:11.064Z,0.97
2018-01-18T11:13:40.949Z,1.93
2018-01-18T11:16:10.920Z,1.30
2018-01-18T11:18:40.913Z,0.90
2018-01-18T11:21:10.941Z,0.70
2018-01-18T11:23:40.786Z,2.00
2018-01-18T11:26:10.698Z,0.70
2018-01-18T11:28:40.599Z,1.93
2018-01-18T11:31:10.502Z,2.10
2018-01-18T11:33:40.406Z,2.60
2018-01-18T11:36:10.302Z,5.20
2018-01-18T11:41:48.789Z,4.47
2018-01-18T11:44:18.694Z,2.13
2018-01-18T11:46:48.669Z,2.63
2018-01-18T11:49:18.554Z,2.30
2018-01-18T11:51:48.522Z,3.53
2018-01-18T11:54:18.364Z,1.83
2018-01-18T11:56:48.440Z,2.30
2018-01-18T11:59:18.314Z,1.50
2018-01-18T12:01:48.287Z,1.40
2018-01-18T12:04:18.202Z,10.07
2018-01-18T12:06:48.099Z,6.30
2018-01-18T12:09:17.972Z,1.57
2018-01-18T12:11:47.992Z,1.23
2018-01-18T12:14:17.848Z,2.80
2018-01-18T12:16:47.765Z,2.60
2018-01-18T12:19:17.767Z,2.40
2018-01-18T12:21:47.632Z,1.80
2018-01-18T12:24:17.696Z,2.50
2018-01-18T12:26:47.613Z,8.20
2018-01-18T12:29:17.495Z,2.00
2018-01-18T12:31:47.370Z,3.50
2018-01-18T12:34:17.307Z,2.50
2018-01-18T12:36:47.186Z,2.20
2018-01-18T12:39:17.057Z,2.63
2018-01-18T12:41:47.040Z,4.40
2018-01-18T12:44:16.901Z,3.23
2018-01-18T12:46:46.907Z,2.40
2018-01-18T12:49:16.774Z,3.47
2018-01-18T12:51:46.690Z,3.70
2018-01-18T12:54:17.076Z,2.50
2018-01-18T12:56:47.270Z,2.70
2018-01-18T12:59:17.310Z,2.53
2018-01-18T13:01:47.306Z,4.17
2018-01-18T13:04:17.607Z,8.33
2018-01-18T13:06:47.598Z,4.37
2018-01-18T13:09:17.638Z,4.20
2018-01-18T13:11:48.195Z,3.13
2018-01-18T13:14:18.988Z,6.17
2018-01-18T13:16:49.359Z,4.30
2018-01-18T13:19:19.624Z,2.00
2018-01-18T13:21:49.690Z,2.20
2018-01-18T13:24:19.736Z,7.10
2018-01-18T13:26:49.680Z,3.37
2018-01-18T13:29:19.817Z,1.87
2018-01-18T13:31:50.237Z,2.40
2018-01-18T13:34:20.337Z,3.83
2018-01-18T13:36:50.321Z,1.33
2018-01-18T13:39:20.611Z,0.80
2018-01-18T13:41:50.661Z,2.60
2018-01-18T13:44:20.874Z,1.40
2018-01-18T13:46:50.798Z,0.70
2018-01-18T13:49:20.724Z,0.80
2018-01-18T13:51:50.850Z,1.10
2018-01-18T14:46:55.526Z,1.10
2018-01-18T14:49:25.441Z,1.07
2018-01-18T14:51:55.846Z,3.03
2018-01-18T14:57:09.656Z,2.67
2018-01-18T14:59:39.531Z,3.70
2018-01-18T15:02:09.438Z,2.13
2018-01-18T15:04:39.552Z,2.30
2018-01-18T15:07:09.696Z,2.10
2018-01-18T15:09:39.544Z,3.27
2018-01-18T15:12:09.458Z,2.67
2018-01-18T15:14:39.284Z,3.13
2018-01-18T15:17:24.846Z,1.80
2018-01-18T15:19:54.750Z,5.03
2018-01-18T15:22:24.679Z,2.70
2018-01-18T15:24:54.536Z,2.30
2018-01-18T15:27:24.452Z,2.20
2018-01-18T15:29:54.306Z,4.50
2018-01-18T15:35:32.267Z,2.40
2018-01-18T15:38:02.231Z,3.53
2018-01-18T15:40:32.574Z,3.20
2018-01-18T15:43:02.466Z,3.10
2018-01-18T15:45:34.045Z,4.60
2018-01-18T15:54:04.582Z,4.03
2018-01-18T15:56:34.447Z,4.83
2018-01-18T15:59:04.489Z,4.40
2018-01-18T16:01:34.321Z,4.70
2018-01-18T16:04:04.184Z,6.27
2018-01-18T16:06:34.058Z,7.17
2018-01-18T16:09:03.946Z,7.60
2018-01-18T16:11:33.822Z,7.20
2018-01-18T16:14:03.702Z,5.83
2018-01-18T16:16:34.157Z,6.63
2018-01-18T16:19:04.018Z,4.50
2018-01-18T16:21:33.946Z,7.00
2018-01-18T16:24:03.769Z,5.50
2018-01-18T16:26:33.804Z,6.60
2018-01-18T16:29:03.717Z,6.27
2018-01-18T16:31:33.663Z,10.03
2018-01-18T16:34:03.530Z,8.70
2018-01-18T16:36:33.391Z,9.63
2018-01-18T16:39:03.196Z,8.67
2018-01-18T16:41:33.054Z,7.80
2018-01-18T16:44:03.135Z,9.03
2018-01-18T16:46:33.014Z,9.87
2018-01-18T16:49:02.973Z,9.30
2018-01-18T16:51:33.084Z,9.37
2018-01-18T16:54:02.940Z,7.53
2018-01-18T16:56:32.778Z,10.33
2018-01-18T16:59:02.879Z,10.53
2018-01-18T17:01:32.700Z,7.03
2018-01-18T17:04:02.580Z,9.50
2018-01-18T17:06:32.404Z,8.60
2018-01-18T17:09:02.298Z,11.67
2018-01-18T17:11:32.130Z,10.03
2018-01-18T17:14:01.983Z,13.20
2018-01-18T17:16:31.797Z,9.80
2018-01-18T17:19:01.638Z,8.90
2018-01-18T17:21:31.534Z,11.63
2018-01-18T17:24:01.355Z,9.80
2018-01-18T17:26:31.228Z,9.60
2018-01-18T17:29:01.060Z,10.03
2018-01-18T17:31:30.886Z,13.63
2018-01-18T17:34:00.949Z,12.10
2018-01-18T17:36:30.808Z,13.60
2018-01-18T17:39:00.941Z,14.90
2018-01-18T17:41:30.832Z,10.60
2018-01-18T17:44:00.740Z,13.93
2018-01-18T17:46:30.624Z,11.47
2018-01-18T17:49:00.630Z,13.83
2018-01-18T17:51:30.525Z,17.87
2018-01-18T17:54:00.477Z,15.47
2018-01-18T17:56:30.381Z,14.73
2018-01-18T17:59:00.242Z,15.13
2018-01-18T18:01:30.068Z,17.47
2018-01-18T18:03:59.928Z,20.67
2018-01-18T18:06:29.790Z,15.23
2018-01-18T18:08:59.669Z,15.00
2018-01-18T18:11:29.612Z,16.67
2018-01-18T18:13:59.475Z,15.37
2018-01-18T18:16:29.464Z,14.90
2018-01-18T18:18:59.304Z,19.20
2018-01-18T18:21:29.257Z,20.30
2018-01-18T18:24:00.165Z,18.93
2018-01-18T18:26:30.226Z,20.43
2018-01-18T18:29:00.578Z,18.80
2018-01-18T18:31:30.430Z,20.23
2018-01-18T18:34:00.480Z,13.00
2018-01-18T18:36:30.334Z,22.83
2018-01-18T18:39:00.197Z,29.27
2018-01-18T18:41:30.033Z,23.30
2018-01-18T18:43:59.861Z,23.10
2018-01-18T18:46:30.187Z,24.03
2018-01-18T18:49:01.032Z,21.90
2018-01-18T18:51:30.952Z,22.73
2018-01-18T18:54:00.846Z,28.13
2018-01-18T18:56:30.734Z,22.83
2018-01-18T18:59:00.770Z,30.67
2018-01-18T19:01:31.042Z,30.30
2018-01-18T19:04:00.944Z,26.67
2018-01-18T19:06:30.864Z,26.37
2018-01-18T19:09:03.062Z,29.67
2018-01-18T19:11:35.561Z,28.00
2018-01-18T19:14:05.419Z,28.23
2018-01-18T19:16:35.567Z,27.47
2018-01-18T19:19:05.378Z,30.97
2018-01-18T19:21:35.355Z,31.50
2018-01-18T19:24:05.230Z,30.10
2018-01-18T19:26:35.167Z,34.17
2018-01-18T19:29:05.068Z,28.30
2018-01-18T19:31:34.926Z,33.80
2018-01-18T19:34:04.944Z,28.83
2018-01-18T19:36:34.849Z,32.40
2018-01-18T19:39:04.806Z,28.13
2018-01-18T19:41:34.732Z,31.20
2018-01-18T19:44:04.607Z,26.53
2018-01-18T19:46:34.484Z,33.43
2018-01-18T19:49:04.424Z,35.63
2018-01-18T19:51:34.339Z,31.77
2018-01-18T19:54:04.252Z,26.50
2018-01-18T19:56:34.238Z,26.33
2018-01-18T19:59:04.199Z,27.67
2018-01-18T20:01:34.217Z,22.40
2018-01-18T20:04:04.189Z,18.87
2018-01-18T20:06:35.253Z,19.97
2018-01-18T20:09:05.168Z,16.70
2018-01-18T20:11:35.079Z,18.67
2018-01-18T20:14:04.984Z,19.43
2018-01-18T20:16:34.860Z,16.87
2018-01-18T20:19:04.856Z,14.40
2018-01-18T20:21:34.817Z,15.97
2018-01-18T20:24:04.747Z,15.23
2018-01-18T20:26:34.766Z,13.47
2018-01-18T20:29:04.784Z,18.87
2018-01-18T20:31:34.761Z,12.70
2018-01-18T20:34:04.941Z,15.73
2018-01-18T20:36:34.893Z,13.63
2018-01-18T20:39:05.187Z,11.07
2018-01-18T20:41:35.075Z,14.73
2018-01-18T20:44:05.256Z,11.17
2018-01-18T20:46:35.128Z,11.03
2018-01-18T20:49:05.132Z,10.37
2018-01-18T20:51:35.075Z,11.10
2018-01-18T20:54:04.948Z,11.33
2018-01-18T20:56:34.866Z,13.03
2018-01-18T20:59:05.262Z,12.30
2018-01-18T21:01:35.219Z,16.27
2018-01-18T21:04:05.091Z,13.50
2018-01-18T21:06:35.179Z,14.20
2018-01-18T21:09:05.078Z,15.70
2018-01-18T21:11:34.971Z,11.20
2018-01-18T21:14:04.842Z,12.40
2018-01-18T21:16:34.769Z,12.73
2018-01-18T21:19:04.796Z,13.10
2018-01-18T21:21:34.800Z,13.20
2018-01-18T21:24:04.699Z,15.33
2018-01-18T21:26:34.680Z,15.30
2018-01-18T21:29:04.530Z,16.00
2018-01-18T21:31:34.472Z,13.53
2018-01-18T21:34:04.493Z,14.50
2018-01-18T21:36:34.721Z,13.57
2018-01-18T21:39:04.570Z,12.33
2018-01-18T21:41:34.461Z,13.23
2018-01-18T21:44:04.363Z,12.90
2018-01-18T22:31:14.578Z,13.17
2018-01-18T22:33:44.432Z,10.40
2018-01-18T22:36:14.363Z,12.93
2018-01-18T22:38:44.269Z,10.40
2018-01-18T22:41:14.190Z,10.93
2018-01-18T22:43:44.036Z,13.33
2018-01-18T22:46:13.971Z,12.40
2018-01-18T22:48:43.790Z,12.23
2018-01-18T22:51:13.669Z,11.67
2018-01-18T22:53:43.512Z,16.37
2018-01-18T22:56:13.391Z,12.57
2018-01-18T22:58:43.243Z,15.27
2018-01-18T23:01:13.170Z,15.60
2018-01-18T23:03:43.129Z,17.73
2018-01-18T23:06:12.979Z,14.60
2018-01-18T23:08:44.646Z,14.13
2018-01-18T23:11:14.649Z,17.70
2018-01-18T23:13:44.676Z,16.83
2018-01-18T23:16:14.880Z,19.47
2018-01-18T23:18:44.810Z,17.23
2018-01-18T23:21:14.753Z,15.27
2018-01-18T23:23:44.681Z,32.07
2018-01-18T23:26:14.583Z,17.23
2018-01-18T23:28:44.472Z,19.20
2018-01-18T23:31:14.348Z,13.90
2018-01-18T23:33:44.533Z,15.67
2018-01-18T23:36:14.420Z,17.67
2018-01-18T23:38:44.616Z,17.77
2018-01-18T23:41:14.492Z,14.77
2018-01-18T23:43:44.385Z,17.80
2018-01-18T23:46:14.397Z,20.30
2018-01-18T23:48:44.378Z,21.97
2018-01-18T23:51:14.276Z,23.40
2018-01-18T23:53:44.161Z,21.13
2018-01-18T23:56:14.021Z,21.43
2018-01-18T23:58:43.918Z,25.23
